sensor_id;sensor_type;location;lat;lon;timestamp;pressure;altitude;pressure_sealevel;temperature;humidity
15260;BME280;34462;51.368;12.364;2022-08-01T00:01:30;20846.41;;;-141.84;67.78
15260;BME280;34462;51.368;12.364;2022-08-01T00:03:58;20811.84;;;-141.84;67.41
15260;BME280;34462;51.368;12.364;2022-08-01T00:06:27;20817.94;;;-141.84;67.53
15260;BME280;34462;51.368;12.364;2022-08-01T00:08:55;20811.84;;;-141.84;67.21
15260;BME280;34462;51.368;12.364;2022-08-01T00:11:25;20793.56;;;-141.84;67.47
15260;BME280;34462;51.368;12.364;2022-08-01T00:13:53;20765.09;;;-141.84;67.54
15260;BME280;34462;51.368;12.364;2022-08-01T00:16:21;20777.28;;;-141.84;67.47
15260;BME280;34462;51.368;12.364;2022-08-01T00:18:51;20779.31;;;-141.84;67.87
15260;BME280;34462;51.368;12.364;2022-08-01T00:21:19;20756.97;;;-141.84;68.03
15260;BME280;34462;51.368;12.364;2022-08-01T00:23:47;20817.94;;;-141.84;68.04
15260;BME280;34462;51.368;12.364;2022-08-01T00:26:15;20781.38;;;-141.84;68.05
15260;BME280;34462;51.368;12.364;2022-08-01T00:28:45;20789.50;;;-141.84;67.82
15260;BME280;34462;51.368;12.364;2022-08-01T00:31:13;20773.22;;;-141.84;67.05
15260;BME280;34462;51.368;12.364;2022-08-01T00:33:41;20815.91;;;-141.84;67.17
15260;BME280;34462;51.368;12.364;2022-08-01T00:36:09;20777.28;;;-141.84;66.82
15260;BME280;34462;51.368;12.364;2022-08-01T00:38:38;20750.88;;;-141.84;67.08
15260;BME280;34462;51.368;12.364;2022-08-01T00:41:06;20781.38;;;-141.84;66.89
15260;BME280;34462;51.368;12.364;2022-08-01T00:43:34;20815.91;;;-141.84;66.36
15260;BME280;34462;51.368;12.364;2022-08-01T00:46:03;20811.84;;;-141.84;66.56
15260;BME280;34462;51.368;12.364;2022-08-01T00:48:32;20765.09;;;-141.84;66.74
15260;BME280;34462;51.368;12.364;2022-08-01T00:51:00;20761.03;;;-141.84;67.02
15260;BME280;34462;51.368;12.364;2022-08-01T00:53:28;20777.28;;;-141.84;67.35
15260;BME280;34462;51.368;12.364;2022-08-01T00:56:17;20789.50;;;-141.84;66.48
15260;BME280;34462;51.368;12.364;2022-08-01T00:58:45;20734.59;;;-141.84;67.09
15260;BME280;34462;51.368;12.364;2022-08-01T01:01:18;20736.63;;;-141.84;67.55
15260;BME280;34462;51.368;12.364;2022-08-01T01:03:49;20746.81;;;-141.84;67.96
15260;BME280;34462;51.368;12.364;2022-08-01T01:06:39;20714.28;;;-141.84;68.22
15260;BME280;34462;51.368;12.364;2022-08-01T01:09:25;20726.47;;;-141.84;67.63
15260;BME280;34462;51.368;12.364;2022-08-01T01:12:05;20732.56;;;-141.84;68.23
15260;BME280;34462;51.368;12.364;2022-08-01T01:14:43;20695.97;;;-141.84;68.47
15260;BME280;34462;51.368;12.364;2022-08-01T01:17:19;20718.34;;;-141.84;67.36
15260;BME280;34462;51.368;12.364;2022-08-01T01:20:13;20771.19;;;-141.84;66.60
15260;BME280;34462;51.368;12.364;2022-08-01T01:23:20;20744.78;;;-141.84;67.53
15260;BME280;34462;51.368;12.364;2022-08-01T01:26:04;20728.50;;;-141.84;67.01
15260;BME280;34462;51.368;12.364;2022-08-01T01:28:59;20730.53;;;-141.84;67.02
15260;BME280;34462;51.368;12.364;2022-08-01T01:31:34;20726.47;;;-141.84;67.33
15260;BME280;34462;51.368;12.364;2022-08-01T01:34:05;20738.66;;;-141.84;67.59
15260;BME280;34462;51.368;12.364;2022-08-01T01:36:37;20720.38;;;-141.84;67.30
15260;BME280;34462;51.368;12.364;2022-08-01T01:39:06;20771.19;;;-141.84;67.40
15260;BME280;34462;51.368;12.364;2022-08-01T01:41:36;20712.25;;;-141.84;66.91
15260;BME280;34462;51.368;12.364;2022-08-01T01:44:07;20714.28;;;-141.84;66.75
15260;BME280;34462;51.368;12.364;2022-08-01T01:46:38;20769.16;;;-141.84;65.88
15260;BME280;34462;51.368;12.364;2022-08-01T01:49:09;20728.50;;;-141.84;66.05
15260;BME280;34462;51.368;12.364;2022-08-01T01:51:39;20775.25;;;-141.84;66.07
15260;BME280;34462;51.368;12.364;2022-08-01T01:54:33;20734.59;;;-141.84;66.15
15260;BME280;34462;51.368;12.364;2022-08-01T01:57:04;20718.34;;;-141.84;66.14
15260;BME280;34462;51.368;12.364;2022-08-01T01:59:37;20779.31;;;-141.84;66.07
15260;BME280;34462;51.368;12.364;2022-08-01T02:02:07;20736.63;;;-141.84;65.93
15260;BME280;34462;51.368;12.364;2022-08-01T02:04:42;20769.16;;;-141.84;65.43
15260;BME280;34462;51.368;12.364;2022-08-01T02:07:14;20756.97;;;-141.84;65.70
15260;BME280;34462;51.368;12.364;2022-08-01T02:09:47;20795.59;;;-141.84;65.85
15260;BME280;34462;51.368;12.364;2022-08-01T02:12:18;20740.69;;;-141.84;66.25
15260;BME280;34462;51.368;12.364;2022-08-01T02:14:52;20771.19;;;-141.84;65.30
15260;BME280;34462;51.368;12.364;2022-08-01T02:17:24;20708.19;;;-141.84;66.79
15260;BME280;34462;51.368;12.364;2022-08-01T02:19:53;20679.72;;;-141.84;67.66
15260;BME280;34462;51.368;12.364;2022-08-01T02:22:31;20643.13;;;-141.84;68.16
15260;BME280;34462;51.368;12.364;2022-08-01T02:25:06;20687.84;;;-141.84;67.10
15260;BME280;34462;51.368;12.364;2022-08-01T02:27:43;20651.25;;;-141.84;67.60
15260;BME280;34462;51.368;12.364;2022-08-01T02:30:15;20663.47;;;-141.84;67.66
15260;BME280;34462;51.368;12.364;2022-08-01T02:32:50;20718.34;;;-141.84;67.14
15260;BME280;34462;51.368;12.364;2022-08-01T02:35:24;20702.09;;;-141.84;67.64
15260;BME280;34462;51.368;12.364;2022-08-01T02:37:57;20675.66;;;-141.84;68.17
15260;BME280;34462;51.368;12.364;2022-08-01T02:40:28;20641.09;;;-141.84;68.36
15260;BME280;34462;51.368;12.364;2022-08-01T02:43:02;20671.59;;;-141.84;68.01
15260;BME280;34462;51.368;12.364;2022-08-01T02:45:35;20616.69;;;-141.84;68.49
15260;BME280;34462;51.368;12.364;2022-08-01T02:48:10;20565.88;;;-141.84;69.20
15260;BME280;34462;51.368;12.364;2022-08-01T02:50:45;20545.56;;;-141.84;69.78
15260;BME280;34462;51.368;12.364;2022-08-01T02:53:19;20571.97;;;-141.84;69.41
15260;BME280;34462;51.368;12.364;2022-08-01T02:56:08;20594.34;;;-141.84;69.35
15260;BME280;34462;51.368;12.364;2022-08-01T02:58:39;20547.59;;;-141.84;69.29
15260;BME280;34462;51.368;12.364;2022-08-01T03:01:10;20630.94;;;-141.84;68.08
15260;BME280;34462;51.368;12.364;2022-08-01T03:03:42;20602.47;;;-141.84;68.80
15260;BME280;34462;51.368;12.364;2022-08-01T03:06:11;20639.06;;;-141.84;68.05
15260;BME280;34462;51.368;12.364;2022-08-01T03:08:41;20620.78;;;-141.84;68.27
15260;BME280;34462;51.368;12.364;2022-08-01T03:11:12;20612.63;;;-141.84;68.24
15260;BME280;34462;51.368;12.364;2022-08-01T03:13:44;20614.66;;;-141.84;68.96
15260;BME280;34462;51.368;12.364;2022-08-01T03:16:16;20661.44;;;-141.84;68.58
15260;BME280;34462;51.368;12.364;2022-08-01T03:18:47;20708.19;;;-141.84;68.41
15260;BME280;34462;51.368;12.364;2022-08-01T03:21:18;20708.19;;;-141.84;67.87
15260;BME280;34462;51.368;12.364;2022-08-01T03:23:50;20643.13;;;-141.84;68.49
15260;BME280;34462;51.368;12.364;2022-08-01T03:26:21;20618.72;;;-141.84;68.87
15260;BME280;34462;51.368;12.364;2022-08-01T03:28:52;20635.00;;;-141.84;69.46
15260;BME280;34462;51.368;12.364;2022-08-01T03:31:25;20578.09;;;-141.84;70.27
15260;BME280;34462;51.368;12.364;2022-08-01T03:33:54;20630.94;;;-141.84;70.21
15260;BME280;34462;51.368;12.364;2022-08-01T03:36:26;20602.47;;;-141.84;70.27
15260;BME280;34462;51.368;12.364;2022-08-01T03:38:59;20667.53;;;-141.84;69.78
15260;BME280;34462;51.368;12.364;2022-08-01T03:41:34;20679.72;;;-141.84;69.79
15260;BME280;34462;51.368;12.364;2022-08-01T03:44:13;20622.81;;;-141.84;70.14
15260;BME280;34462;51.368;12.364;2022-08-01T03:46:47;20616.69;;;-141.84;70.84
15260;BME280;34462;51.368;12.364;2022-08-01T03:49:22;20584.19;;;-141.84;71.07
15260;BME280;34462;51.368;12.364;2022-08-01T03:51:52;20632.97;;;-141.84;70.84
15260;BME280;34462;51.368;12.364;2022-08-01T03:54:23;20620.78;;;-141.84;70.95
15260;BME280;34462;51.368;12.364;2022-08-01T03:56:52;20594.34;;;-141.84;71.10
15260;BME280;34462;51.368;12.364;2022-08-01T03:59:22;20598.41;;;-141.84;70.72
15260;BME280;34462;51.368;12.364;2022-08-01T04:01:53;20624.84;;;-141.84;70.34
15260;BME280;34462;51.368;12.364;2022-08-01T04:04:22;20653.28;;;-141.84;70.36
15260;BME280;34462;51.368;12.364;2022-08-01T04:06:50;20569.94;;;-141.84;70.92
15260;BME280;34462;51.368;12.364;2022-08-01T04:09:21;20614.66;;;-141.84;71.34
15260;BME280;34462;51.368;12.364;2022-08-01T04:11:49;20620.78;;;-141.84;71.22
15260;BME280;34462;51.368;12.364;2022-08-01T04:14:18;20598.41;;;-141.84;70.62
15260;BME280;34462;51.368;12.364;2022-08-01T04:16:46;20649.22;;;-141.84;70.67
15260;BME280;34462;51.368;12.364;2022-08-01T04:19:15;20620.78;;;-141.84;70.56
15260;BME280;34462;51.368;12.364;2022-08-01T04:21:44;20576.03;;;-141.84;71.04
15260;BME280;34462;51.368;12.364;2022-08-01T04:24:16;20626.88;;;-141.84;70.28
15260;BME280;34462;51.368;12.364;2022-08-01T04:26:47;20659.38;;;-141.84;70.27
15260;BME280;34462;51.368;12.364;2022-08-01T04:29:20;20691.91;;;-141.84;69.48
15260;BME280;34462;51.368;12.364;2022-08-01T04:31:52;20649.22;;;-141.84;70.03
15260;BME280;34462;51.368;12.364;2022-08-01T04:34:28;20671.59;;;-141.84;69.75
15260;BME280;34462;51.368;12.364;2022-08-01T04:36:59;20608.56;;;-141.84;70.83
15260;BME280;34462;51.368;12.364;2022-08-01T04:39:31;20596.38;;;-141.84;70.85
15260;BME280;34462;51.368;12.364;2022-08-01T04:42:17;20614.66;;;-141.84;70.94
15260;BME280;34462;51.368;12.364;2022-08-01T04:44:54;20687.84;;;-141.84;70.24
15260;BME280;34462;51.368;12.364;2022-08-01T04:47:22;20614.66;;;-141.84;70.30
15260;BME280;34462;51.368;12.364;2022-08-01T04:49:53;20637.03;;;-141.84;70.02
15260;BME280;34462;51.368;12.364;2022-08-01T04:52:23;20645.16;;;-141.84;69.93
15260;BME280;34462;51.368;12.364;2022-08-01T04:55:00;20606.53;;;-141.84;70.31
15260;BME280;34462;51.368;12.364;2022-08-01T04:57:28;20632.97;;;-141.84;71.10
15260;BME280;34462;51.368;12.364;2022-08-01T04:59:57;20596.38;;;-141.84;71.46
15260;BME280;34462;51.368;12.364;2022-08-01T05:02:25;20600.44;;;-141.84;71.90
15260;BME280;34462;51.368;12.364;2022-08-01T05:04:57;20574.00;;;-141.84;71.58
15260;BME280;34462;51.368;12.364;2022-08-01T05:07:25;20569.94;;;-141.84;72.63
15260;BME280;34462;51.368;12.364;2022-08-01T05:09:53;20618.72;;;-141.84;72.78
15260;BME280;34462;51.368;12.364;2022-08-01T05:12:21;20608.56;;;-141.84;72.27
15260;BME280;34462;51.368;12.364;2022-08-01T05:14:49;20622.81;;;-141.84;71.76
15260;BME280;34462;51.368;12.364;2022-08-01T05:17:17;20641.09;;;-141.84;70.93
15260;BME280;34462;51.368;12.364;2022-08-01T05:19:46;20704.13;;;-141.84;70.37
15260;BME280;34462;51.368;12.364;2022-08-01T05:22:15;20708.19;;;-141.84;69.73
15260;BME280;34462;51.368;12.364;2022-08-01T05:24:46;20712.25;;;-141.84;69.04
15260;BME280;34462;51.368;12.364;2022-08-01T05:27:15;20777.28;;;-141.84;68.24
15260;BME280;34462;51.368;12.364;2022-08-01T05:29:45;20771.19;;;-141.84;67.68
15260;BME280;34462;51.368;12.364;2022-08-01T05:32:13;20846.41;;;-141.84;66.69
15260;BME280;34462;51.368;12.364;2022-08-01T05:34:41;20858.59;;;-141.84;66.35
15260;BME280;34462;51.368;12.364;2022-08-01T05:37:09;20880.97;;;-141.84;66.17
15260;BME280;34462;51.368;12.364;2022-08-01T05:39:39;20899.28;;;-141.84;65.99
15260;BME280;34462;51.368;12.364;2022-08-01T05:42:07;20923.66;;;-141.84;66.14
15260;BME280;34462;51.368;12.364;2022-08-01T05:44:35;20996.84;;;-141.84;64.93
15260;BME280;34462;51.368;12.364;2022-08-01T05:47:03;21070.03;;;-141.84;63.40
15260;BME280;34462;51.368;12.364;2022-08-01T05:49:31;21041.56;;;-141.84;64.27
15260;BME280;34462;51.368;12.364;2022-08-01T05:52:00;21047.69;;;-141.84;63.85
15260;BME280;34462;51.368;12.364;2022-08-01T05:54:29;21135.09;;;-141.84;62.95
15260;BME280;34462;51.368;12.364;2022-08-01T05:56:59;21104.59;;;-141.84;62.64
15260;BME280;34462;51.368;12.364;2022-08-01T05:59:28;21076.13;;;-141.84;63.82
15260;BME280;34462;51.368;12.364;2022-08-01T06:01:57;21116.78;;;-141.84;63.29
15260;BME280;34462;51.368;12.364;2022-08-01T06:04:25;21106.63;;;-141.84;63.00
15260;BME280;34462;51.368;12.364;2022-08-01T06:06:53;21106.63;;;-141.84;62.60
15260;BME280;34462;51.368;12.364;2022-08-01T06:09:21;21183.88;;;-141.84;61.66
15260;BME280;34462;51.368;12.364;2022-08-01T06:11:50;21179.81;;;-141.84;62.21
15260;BME280;34462;51.368;12.364;2022-08-01T06:14:19;21153.41;;;-141.84;62.21
15260;BME280;34462;51.368;12.364;2022-08-01T06:16:47;21165.59;;;-141.84;62.04
15260;BME280;34462;51.368;12.364;2022-08-01T06:19:15;21208.28;;;-141.84;62.22
15260;BME280;34462;51.368;12.364;2022-08-01T06:21:43;21159.50;;;-141.84;61.81
15260;BME280;34462;51.368;12.364;2022-08-01T06:24:11;21155.44;;;-141.84;62.71
15260;BME280;34462;51.368;12.364;2022-08-01T06:26:39;21181.84;;;-141.84;62.72
15260;BME280;34462;51.368;12.364;2022-08-01T06:29:07;21129.00;;;-141.84;63.37
15260;BME280;34462;51.368;12.364;2022-08-01T06:31:37;21129.00;;;-141.84;63.99
15260;BME280;34462;51.368;12.364;2022-08-01T06:34:05;21126.97;;;-141.84;63.49
15260;BME280;34462;51.368;12.364;2022-08-01T06:36:33;21204.22;;;-141.84;62.08
15260;BME280;34462;51.368;12.364;2022-08-01T06:39:01;21139.16;;;-141.84;62.89
15260;BME280;34462;51.368;12.364;2022-08-01T06:41:29;21171.69;;;-141.84;62.51
15260;BME280;34462;51.368;12.364;2022-08-01T06:43:57;21183.88;;;-141.84;62.10
15260;BME280;34462;51.368;12.364;2022-08-01T06:46:29;21196.09;;;-141.84;61.88
15260;BME280;34462;51.368;12.364;2022-08-01T06:49:00;21159.50;;;-141.84;62.28
15260;BME280;34462;51.368;12.364;2022-08-01T06:51:28;21171.69;;;-141.84;62.37
15260;BME280;34462;51.368;12.364;2022-08-01T06:53:56;21141.19;;;-141.84;62.63
15260;BME280;34462;51.368;12.364;2022-08-01T06:56:25;21139.16;;;-141.84;62.54
15260;BME280;34462;51.368;12.364;2022-08-01T06:58:53;21153.41;;;-141.84;63.04
15260;BME280;34462;51.368;12.364;2022-08-01T07:01:23;21126.97;;;-141.84;62.84
15260;BME280;34462;51.368;12.364;2022-08-01T07:03:51;21122.91;;;-141.84;62.60
15260;BME280;34462;51.368;12.364;2022-08-01T07:06:23;21171.69;;;-141.84;62.16
15260;BME280;34462;51.368;12.364;2022-08-01T07:08:52;21157.47;;;-141.84;62.25
15260;BME280;34462;51.368;12.364;2022-08-01T07:11:22;21139.16;;;-141.84;62.72
15260;BME280;34462;51.368;12.364;2022-08-01T07:13:51;21169.66;;;-141.84;62.48
15260;BME280;34462;51.368;12.364;2022-08-01T07:16:19;21163.56;;;-141.84;62.51
15260;BME280;34462;51.368;12.364;2022-08-01T07:18:47;21171.69;;;-141.84;62.61
15260;BME280;34462;51.368;12.364;2022-08-01T07:21:15;21183.88;;;-141.84;61.88
15260;BME280;34462;51.368;12.364;2022-08-01T07:24:06;21248.94;;;-141.84;60.52
15260;BME280;34462;51.368;12.364;2022-08-01T07:26:42;21273.34;;;-141.84;60.71
15260;BME280;34462;51.368;12.364;2022-08-01T07:29:21;21358.75;;;-141.84;59.10
15260;BME280;34462;51.368;12.364;2022-08-01T07:31:49;21352.63;;;-141.84;58.28
15260;BME280;34462;51.368;12.364;2022-08-01T07:34:17;21405.50;;;-141.84;58.55
15260;BME280;34462;51.368;12.364;2022-08-01T07:36:45;21358.75;;;-141.84;58.94
15260;BME280;34462;51.368;12.364;2022-08-01T07:39:15;21324.19;;;-141.84;59.40
15260;BME280;34462;51.368;12.364;2022-08-01T07:41:43;21244.88;;;-141.84;60.47
15260;BME280;34462;51.368;12.364;2022-08-01T07:44:31;20986.69;;;-141.84;65.93
15260;BME280;34462;51.368;12.364;2022-08-01T07:46:59;20850.47;;;-141.84;70.76
15260;BME280;34462;51.368;12.364;2022-08-01T07:49:28;20765.09;;;-141.84;73.81
15260;BME280;34462;51.368;12.364;2022-08-01T07:51:58;20702.09;;;-141.84;75.02
15260;BME280;34462;51.368;12.364;2022-08-01T07:54:31;20722.41;;;-141.84;73.69
15260;BME280;34462;51.368;12.364;2022-08-01T07:57:01;20693.94;;;-141.84;75.34
15260;BME280;34462;51.368;12.364;2022-08-01T07:59:29;20659.38;;;-141.84;76.33
15260;BME280;34462;51.368;12.364;2022-08-01T08:01:58;20671.59;;;-141.84;75.20
15260;BME280;34462;51.368;12.364;2022-08-01T08:04:31;20657.34;;;-141.84;74.54
15260;BME280;34462;51.368;12.364;2022-08-01T08:07:02;20679.72;;;-141.84;74.18
15260;BME280;34462;51.368;12.364;2022-08-01T08:09:33;20740.69;;;-141.84;75.26
15260;BME280;34462;51.368;12.364;2022-08-01T08:12:05;20779.31;;;-141.84;72.78
15260;BME280;34462;51.368;12.364;2022-08-01T08:14:37;20860.66;;;-141.84;70.56
15260;BME280;34462;51.368;12.364;2022-08-01T08:17:08;20866.75;;;-141.84;70.92
15260;BME280;34462;51.368;12.364;2022-08-01T08:19:39;20858.59;;;-141.84;69.82
15260;BME280;34462;51.368;12.364;2022-08-01T08:22:10;20905.38;;;-141.84;70.25
15260;BME280;34462;51.368;12.364;2022-08-01T08:24:40;21009.03;;;-141.84;67.55
15260;BME280;34462;51.368;12.364;2022-08-01T08:27:13;21009.03;;;-141.84;66.36
15260;BME280;34462;51.368;12.364;2022-08-01T08:29:41;21135.09;;;-141.84;64.06
15260;BME280;34462;51.368;12.364;2022-08-01T08:32:10;21187.97;;;-141.84;61.56
15260;BME280;34462;51.368;12.364;2022-08-01T08:34:39;21183.88;;;-141.84;61.99
15260;BME280;34462;51.368;12.364;2022-08-01T08:37:07;21228.63;;;-141.84;61.15
15260;BME280;34462;51.368;12.364;2022-08-01T08:39:36;21236.75;;;-141.84;61.66
15260;BME280;34462;51.368;12.364;2022-08-01T08:42:11;21246.91;;;-141.84;61.26
15260;BME280;34462;51.368;12.364;2022-08-01T08:44:41;21287.56;;;-141.84;60.08
15260;BME280;34462;51.368;12.364;2022-08-01T08:47:14;21330.28;;;-141.84;58.84
15260;BME280;34462;51.368;12.364;2022-08-01T08:49:48;21364.84;;;-141.84;59.57
15260;BME280;34462;51.368;12.364;2022-08-01T08:52:20;21395.34;;;-141.84;57.85
15260;BME280;34462;51.368;12.364;2022-08-01T08:54:50;21415.66;;;-141.84;58.42
15260;BME280;34462;51.368;12.364;2022-08-01T08:57:21;21415.66;;;-141.84;58.66
15260;BME280;34462;51.368;12.364;2022-08-01T08:59:50;21474.63;;;-141.84;57.92
15260;BME280;34462;51.368;12.364;2022-08-01T09:02:21;21462.44;;;-141.84;57.23
15260;BME280;34462;51.368;12.364;2022-08-01T09:04:50;21525.47;;;-141.84;56.24
15260;BME280;34462;51.368;12.364;2022-08-01T09:07:18;21553.94;;;-141.84;55.28
15260;BME280;34462;51.368;12.364;2022-08-01T09:09:46;21541.72;;;-141.84;54.95
15260;BME280;34462;51.368;12.364;2022-08-01T09:12:19;21468.53;;;-141.84;56.73
15260;BME280;34462;51.368;12.364;2022-08-01T09:14:48;21372.97;;;-141.84;57.10
15260;BME280;34462;51.368;12.364;2022-08-01T09:17:20;21368.91;;;-141.84;58.23
15260;BME280;34462;51.368;12.364;2022-08-01T09:19:51;21358.75;;;-141.84;57.22
15260;BME280;34462;51.368;12.364;2022-08-01T09:22:23;21452.25;;;-141.84;55.84
15260;BME280;34462;51.368;12.364;2022-08-01T09:25:00;21488.88;;;-141.84;55.06
15260;BME280;34462;51.368;12.364;2022-08-01T09:27:30;21586.47;;;-141.84;53.70
15260;BME280;34462;51.368;12.364;2022-08-01T09:30:10;21763.34;;;-141.84;51.99
15260;BME280;34462;51.368;12.364;2022-08-01T09:32:57;21732.84;;;-141.84;52.47
15260;BME280;34462;51.368;12.364;2022-08-01T09:35:29;21706.44;;;-141.84;52.59
15260;BME280;34462;51.368;12.364;2022-08-01T09:38:17;21712.53;;;-141.84;52.34
15260;BME280;34462;51.368;12.364;2022-08-01T09:40:48;21639.31;;;-141.84;52.82
15260;BME280;34462;51.368;12.364;2022-08-01T09:43:18;21590.53;;;-141.84;52.71
15260;BME280;34462;51.368;12.364;2022-08-01T09:45:48;21635.25;;;-141.84;52.83
15260;BME280;34462;51.368;12.364;2022-08-01T09:48:20;21700.31;;;-141.84;52.13
15260;BME280;34462;51.368;12.364;2022-08-01T09:50:56;21726.75;;;-141.84;51.74
15260;BME280;34462;51.368;12.364;2022-08-01T09:53:40;21879.25;;;-141.84;50.05
15260;BME280;34462;51.368;12.364;2022-08-01T09:56:17;21907.72;;;-141.84;50.27
15260;BME280;34462;51.368;12.364;2022-08-01T09:58:55;21785.72;;;-141.84;51.72
15260;BME280;34462;51.368;12.364;2022-08-01T10:01:40;21714.56;;;-141.84;52.34
15260;BME280;34462;51.368;12.364;2022-08-01T10:04:11;21661.69;;;-141.84;52.30
15260;BME280;34462;51.368;12.364;2022-08-01T10:06:43;21751.16;;;-141.84;51.91
15260;BME280;34462;51.368;12.364;2022-08-01T10:09:13;21708.47;;;-141.84;52.52
15260;BME280;34462;51.368;12.364;2022-08-01T10:11:43;21669.81;;;-141.84;53.32
15260;BME280;34462;51.368;12.364;2022-08-01T10:14:12;21633.22;;;-141.84;52.65
15260;BME280;34462;51.368;12.364;2022-08-01T10:16:45;21612.88;;;-141.84;52.45
15260;BME280;34462;51.368;12.364;2022-08-01T10:19:27;21745.06;;;-141.84;50.82
15260;BME280;34462;51.368;12.364;2022-08-01T10:21:58;21785.72;;;-141.84;50.57
15260;BME280;34462;51.368;12.364;2022-08-01T10:24:29;21867.06;;;-141.84;49.68
15260;BME280;34462;51.368;12.364;2022-08-01T10:27:04;21791.81;;;-141.84;50.74
15260;BME280;34462;51.368;12.364;2022-08-01T10:29:42;21761.31;;;-141.84;50.19
15260;BME280;34462;51.368;12.364;2022-08-01T10:32:13;21745.06;;;-141.84;50.33
15260;BME280;34462;51.368;12.364;2022-08-01T10:34:41;21810.13;;;-141.84;50.07
15260;BME280;34462;51.368;12.364;2022-08-01T10:37:13;21850.78;;;-141.84;49.26
15260;BME280;34462;51.368;12.364;2022-08-01T10:39:43;21889.44;;;-141.84;49.31
15260;BME280;34462;51.368;12.364;2022-08-01T10:42:12;21926.03;;;-141.84;48.31
15260;BME280;34462;51.368;12.364;2022-08-01T10:44:43;21948.41;;;-141.84;48.36
15260;BME280;34462;51.368;12.364;2022-08-01T10:47:23;22007.38;;;-141.84;48.10
15260;BME280;34462;51.368;12.364;2022-08-01T10:50:23;22039.91;;;-141.84;47.58
15260;BME280;34462;51.368;12.364;2022-08-01T10:53:14;22050.06;;;-141.84;47.66
15260;BME280;34462;51.368;12.364;2022-08-01T10:56:00;22149.72;;;-141.84;46.38
15260;BME280;34462;51.368;12.364;2022-08-01T10:58:32;22155.81;;;-141.84;46.24
15260;BME280;34462;51.368;12.364;2022-08-01T11:01:21;22332.75;;;-141.84;44.90
15260;BME280;34462;51.368;12.364;2022-08-01T11:04:08;22279.88;;;-141.84;44.37
15260;BME280;34462;51.368;12.364;2022-08-01T11:07:03;22235.13;;;-141.84;44.67
15260;BME280;34462;51.368;12.364;2022-08-01T11:09:42;22176.16;;;-141.84;44.36
15260;BME280;34462;51.368;12.364;2022-08-01T11:12:18;22198.53;;;-141.84;44.42
15260;BME280;34462;51.368;12.364;2022-08-01T11:15:24;22265.63;;;-141.84;45.00
15260;BME280;34462;51.368;12.364;2022-08-01T11:17:59;22143.63;;;-141.84;45.01
15260;BME280;34462;51.368;12.364;2022-08-01T11:20:31;22127.34;;;-141.84;45.65
15260;BME280;34462;51.368;12.364;2022-08-01T11:23:26;22131.41;;;-141.84;45.31
15260;BME280;34462;51.368;12.364;2022-08-01T11:26:21;22180.22;;;-141.84;45.12
15260;BME280;34462;51.368;12.364;2022-08-01T11:29:14;22202.59;;;-141.84;45.21
15260;BME280;34462;51.368;12.364;2022-08-01T11:31:49;22143.63;;;-141.84;45.61
15260;BME280;34462;51.368;12.364;2022-08-01T11:34:52;22206.66;;;-141.84;45.75
15260;BME280;34462;51.368;12.364;2022-08-01T11:37:24;22233.09;;;-141.84;45.16
15260;BME280;34462;51.368;12.364;2022-08-01T11:40:17;22371.38;;;-141.84;43.95
15260;BME280;34462;51.368;12.364;2022-08-01T11:42:45;22363.25;;;-141.84;43.79
15260;BME280;34462;51.368;12.364;2022-08-01T11:45:14;22326.66;;;-141.84;44.15
15260;BME280;34462;51.368;12.364;2022-08-01T11:47:48;22318.50;;;-141.84;44.67
15260;BME280;34462;51.368;12.364;2022-08-01T11:50:35;22243.25;;;-141.84;46.52
15260;BME280;34462;51.368;12.364;2022-08-01T11:53:07;22090.75;;;-141.84;48.58
15260;BME280;34462;51.368;12.364;2022-08-01T11:55:45;22009.41;;;-141.84;49.43
15260;BME280;34462;51.368;12.364;2022-08-01T11:58:22;21989.06;;;-141.84;50.07
15260;BME280;34462;51.368;12.364;2022-08-01T12:00:58;22125.31;;;-141.84;48.89
15260;BME280;34462;51.368;12.364;2022-08-01T12:03:29;22151.75;;;-141.84;48.57
15260;BME280;34462;51.368;12.364;2022-08-01T12:06:01;22196.50;;;-141.84;47.98
15260;BME280;34462;51.368;12.364;2022-08-01T12:08:33;22129.38;;;-141.84;47.79
15260;BME280;34462;51.368;12.364;2022-08-01T12:11:04;22072.44;;;-141.84;47.83
15260;BME280;34462;51.368;12.364;2022-08-01T12:13:40;22102.94;;;-141.84;47.83
15260;BME280;34462;51.368;12.364;2022-08-01T12:16:10;22096.84;;;-141.84;47.26
15260;BME280;34462;51.368;12.364;2022-08-01T12:18:40;22068.38;;;-141.84;47.01
15260;BME280;34462;51.368;12.364;2022-08-01T12:21:10;21982.97;;;-141.84;48.15
15260;BME280;34462;51.368;12.364;2022-08-01T12:23:38;21966.69;;;-141.84;48.40
15260;BME280;34462;51.368;12.364;2022-08-01T12:26:06;21980.94;;;-141.84;48.35
15260;BME280;34462;51.368;12.364;2022-08-01T12:28:54;22021.59;;;-141.84;48.85
15260;BME280;34462;51.368;12.364;2022-08-01T12:31:31;21926.03;;;-141.84;48.82
15260;BME280;34462;51.368;12.364;2022-08-01T12:34:26;21893.50;;;-141.84;48.72
15260;BME280;34462;51.368;12.364;2022-08-01T12:36:59;21846.72;;;-141.84;49.21
15260;BME280;34462;51.368;12.364;2022-08-01T12:39:32;21901.63;;;-141.84;48.36
15260;BME280;34462;51.368;12.364;2022-08-01T12:42:01;21948.41;;;-141.84;48.33
15260;BME280;34462;51.368;12.364;2022-08-01T12:44:30;22011.44;;;-141.84;47.24
15260;BME280;34462;51.368;12.364;2022-08-01T12:47:00;21968.72;;;-141.84;47.67
15260;BME280;34462;51.368;12.364;2022-08-01T12:49:30;21974.84;;;-141.84;48.37
15260;BME280;34462;51.368;12.364;2022-08-01T12:52:01;21936.19;;;-141.84;48.44
15260;BME280;34462;51.368;12.364;2022-08-01T12:54:29;22005.34;;;-141.84;48.02
15260;BME280;34462;51.368;12.364;2022-08-01T12:56:57;22088.72;;;-141.84;47.82
15260;BME280;34462;51.368;12.364;2022-08-01T12:59:27;22155.81;;;-141.84;46.62